createdAt,value
2022-09-10T00:02:17.982Z,12.45
2022-09-10T00:04:44.997Z,11.57
2022-09-10T00:07:12.549Z,12.85
2022-09-10T00:09:39.942Z,13.60
2022-09-10T00:12:07.247Z,14.23
2022-09-10T00:14:34.309Z,11.60
2022-09-10T00:17:01.218Z,13.65
2022-09-10T00:19:28.903Z,11.80
2022-09-10T00:21:55.754Z,13.95
2022-09-10T00:24:22.949Z,14.32
2022-09-10T00:26:50.411Z,12.07
2022-09-10T00:29:17.873Z,12.15
2022-09-10T00:31:45.099Z,12.93
2022-09-10T00:34:14.317Z,12.05
2022-09-10T00:36:43.583Z,12.13
2022-09-10T00:39:16.687Z,11.75
2022-09-10T00:41:46.187Z,12.02
2022-09-10T00:44:38.158Z,13.07
2022-09-10T00:47:12.922Z,14.00
2022-09-10T00:49:45.636Z,11.68
2022-09-10T00:52:13.280Z,10.77
2022-09-10T00:54:42.985Z,12.55
2022-09-10T00:57:14.318Z,12.43
2022-09-10T00:59:46.294Z,12.07
2022-09-10T01:02:14.505Z,11.98
2022-09-10T01:04:42.745Z,13.18
2022-09-10T01:07:11.780Z,12.63
2022-09-10T01:09:40.020Z,14.75
2022-09-10T01:12:25.099Z,14.38
2022-09-10T01:15:03.972Z,13.88
2022-09-10T01:17:43.976Z,11.38
2022-09-10T01:20:20.100Z,11.93
2022-09-10T01:23:17.074Z,13.15
2022-09-10T01:26:21.720Z,12.95
2022-09-10T01:28:55.160Z,12.10
2022-09-10T01:31:31.917Z,13.60
2022-09-10T01:34:11.398Z,14.27
2022-09-10T01:36:45.442Z,14.90
2022-09-10T01:39:12.523Z,15.65
2022-09-10T01:41:39.739Z,14.43
2022-09-10T01:44:41.043Z,12.75
2022-09-10T01:47:32.338Z,15.10
2022-09-10T01:50:12.386Z,15.57
2022-09-10T01:53:05.469Z,16.20
2022-09-10T01:55:49.201Z,15.38
2022-09-10T01:58:41.880Z,14.93
2022-09-10T02:01:31.571Z,14.90
2022-09-10T02:04:06.040Z,15.57
2022-09-10T02:06:37.756Z,15.00
2022-09-10T02:09:06.821Z,14.60
2022-09-10T02:11:48.338Z,15.20
2022-09-10T02:14:16.828Z,14.52
2022-09-10T02:16:51.089Z,14.02
2022-09-10T02:19:18.522Z,13.68
2022-09-10T02:21:46.614Z,12.90
2022-09-10T02:24:14.055Z,13.40
2022-09-10T02:26:43.637Z,12.48
2022-09-10T02:29:14.199Z,11.13
2022-09-10T02:31:42.319Z,10.95
2022-09-10T02:34:09.179Z,12.02
2022-09-10T02:36:36.891Z,11.90
2022-09-10T02:39:05.775Z,14.32
2022-09-10T02:41:34.765Z,14.30
2022-09-10T02:44:02.401Z,13.82
2022-09-10T02:46:29.855Z,14.05
2022-09-10T02:48:56.885Z,12.95
2022-09-10T02:51:24.338Z,12.82
2022-09-10T02:53:51.470Z,12.10
2022-09-10T02:56:19.963Z,12.00
2022-09-10T02:58:47.159Z,12.60
2022-09-10T03:01:21.110Z,11.32
2022-09-10T03:03:54.741Z,12.10
2022-09-10T03:06:25.615Z,11.60
2022-09-10T03:08:55.579Z,12.48
2022-09-10T03:11:24.287Z,10.83
2022-09-10T03:13:51.405Z,11.27
2022-09-10T03:16:18.926Z,11.52
2022-09-10T03:18:46.342Z,12.15
2022-09-10T03:21:18.760Z,11.52
2022-09-10T03:23:48.357Z,11.07
2022-09-10T03:26:18.230Z,12.18
2022-09-10T03:28:45.594Z,11.90
2022-09-10T03:31:14.057Z,11.40
2022-09-10T03:33:41.430Z,11.35
2022-09-10T03:36:10.065Z,12.18
2022-09-10T03:38:37.118Z,14.10
2022-09-10T03:41:04.315Z,13.10
2022-09-10T03:43:31.454Z,10.43
2022-09-10T03:45:58.544Z,11.00
2022-09-10T03:48:25.505Z,11.70
2022-09-10T03:50:52.580Z,11.45
2022-09-10T03:53:20.922Z,10.57
2022-09-10T03:55:49.775Z,10.77
2022-09-10T03:58:18.254Z,10.32
2022-09-10T04:00:46.642Z,9.95
2022-09-10T04:03:14.911Z,10.98
2022-09-10T04:05:45.600Z,11.23
2022-09-10T04:10:41.265Z,12.15
2022-09-10T04:13:08.893Z,11.70
2022-09-10T04:15:36.119Z,11.60
2022-09-10T04:18:03.301Z,11.68
2022-09-10T04:20:30.439Z,11.50
2022-09-10T04:22:57.404Z,11.98
2022-09-10T04:25:24.688Z,11.55
2022-09-10T04:27:51.664Z,12.90
2022-09-10T04:30:19.812Z,12.95
2022-09-10T04:32:47.249Z,12.80
2022-09-10T04:35:17.067Z,11.57
2022-09-10T04:37:44.057Z,11.57
2022-09-10T04:40:11.470Z,11.80
2022-09-10T04:42:39.476Z,11.35
2022-09-10T04:45:07.726Z,11.65
2022-09-10T04:47:35.054Z,10.63
2022-09-10T04:50:02.412Z,11.18
2022-09-10T04:52:29.410Z,10.45
2022-09-10T04:54:56.507Z,10.43
2022-09-10T04:57:24.656Z,11.25
2022-09-10T04:59:53.027Z,10.32
2022-09-10T05:02:20.951Z,10.60
2022-09-10T05:04:47.837Z,10.15
2022-09-10T05:07:14.805Z,11.07
2022-09-10T05:09:41.750Z,10.52
2022-09-10T05:12:08.731Z,10.48
2022-09-10T05:14:35.646Z,11.32
2022-09-10T05:17:02.543Z,11.50
2022-09-10T05:19:29.487Z,11.02
2022-09-10T05:21:56.425Z,10.38
2022-09-10T05:24:23.350Z,9.70
2022-09-10T05:26:52.153Z,10.77
2022-09-10T05:29:19.571Z,10.43
2022-09-10T05:31:46.481Z,11.10
2022-09-10T05:34:13.480Z,10.60
2022-09-10T05:36:41.790Z,11.30
2022-09-10T05:39:08.942Z,9.93
2022-09-10T05:41:35.801Z,11.20
2022-09-10T05:44:03.466Z,8.73
2022-09-10T05:46:31.149Z,10.93
2022-09-10T05:48:58.426Z,10.07
2022-09-10T05:51:28.985Z,10.55
2022-09-10T05:53:56.160Z,9.77
2022-09-10T05:56:23.627Z,10.10
2022-09-10T05:58:50.612Z,11.90
2022-09-10T06:01:17.534Z,11.55
2022-09-10T06:03:44.700Z,10.75
2022-09-10T06:06:12.076Z,10.63
2022-09-10T06:08:40.237Z,8.80
2022-09-10T06:11:07.887Z,9.93
2022-09-10T06:13:35.576Z,9.48
2022-09-10T06:16:02.985Z,10.38
2022-09-10T06:18:30.359Z,10.15
2022-09-10T06:21:09.220Z,11.65
2022-09-10T06:23:39.612Z,10.13
2022-09-10T06:26:10.625Z,11.50
2022-09-10T06:28:37.698Z,10.88
2022-09-10T06:31:06.034Z,11.10
2022-09-10T06:33:34.305Z,10.52
2022-09-10T06:36:02.087Z,11.18
2022-09-10T06:38:31.668Z,10.05
2022-09-10T06:41:01.019Z,11.25
2022-09-10T06:43:31.965Z,11.07
2022-09-10T06:45:59.010Z,10.38
2022-09-10T06:48:47.556Z,11.77
2022-09-10T06:51:16.952Z,12.80
2022-09-10T06:53:46.898Z,12.20
2022-09-10T06:56:15.558Z,12.10
2022-09-10T06:58:42.509Z,10.68
2022-09-10T07:01:12.300Z,11.43
2022-09-10T07:03:39.252Z,10.80
2022-09-10T07:06:08.663Z,10.13
2022-09-10T07:08:35.919Z,10.05
2022-09-10T07:11:05.775Z,11.55
2022-09-10T07:13:32.732Z,10.38
2022-09-10T07:16:00.004Z,10.82
2022-09-10T07:18:28.068Z,10.38
2022-09-10T07:21:06.263Z,10.73
2022-09-10T07:23:33.198Z,9.88
2022-09-10T07:26:05.262Z,9.07
2022-09-10T07:28:32.460Z,9.63
2022-09-10T07:30:59.441Z,10.57
2022-09-10T07:33:26.438Z,10.23
2022-09-10T07:35:53.367Z,10.07
2022-09-10T07:38:20.996Z,10.57
2022-09-10T07:40:48.707Z,11.05
2022-09-10T07:43:16.215Z,11.35
2022-09-10T07:45:43.222Z,10.52
2022-09-10T07:48:12.307Z,9.30
2022-09-10T07:50:39.265Z,11.52
2022-09-10T07:53:06.499Z,11.07
2022-09-10T07:55:33.474Z,11.00
2022-09-10T07:58:00.748Z,11.60
2022-09-10T08:00:27.851Z,9.82
2022-09-10T08:02:54.908Z,9.68
2022-09-10T08:05:22.099Z,9.70
2022-09-10T08:07:49.026Z,9.82
2022-09-10T08:10:15.974Z,11.60
2022-09-10T08:12:43.907Z,11.55
2022-09-10T08:15:11.331Z,11.73
2022-09-10T08:17:38.609Z,12.02
2022-09-10T08:20:08.466Z,10.35
2022-09-10T08:22:35.879Z,10.70
2022-09-10T08:25:03.295Z,10.15
2022-09-10T08:27:30.297Z,8.98
2022-09-10T08:29:57.986Z,10.15
2022-09-10T08:32:24.979Z,9.98
2022-09-10T08:34:52.859Z,10.55
2022-09-10T08:37:19.836Z,10.15
2022-09-10T08:39:46.817Z,9.95
2022-09-10T08:42:23.938Z,9.57
2022-09-10T08:44:54.362Z,10.45
2022-09-10T08:47:53.898Z,10.18
2022-09-10T08:51:00.084Z,10.02
2022-09-10T08:53:36.100Z,9.88
2022-09-10T08:56:14.420Z,9.70
2022-09-10T08:59:17.688Z,9.13
2022-09-10T09:01:54.941Z,9.80
2022-09-10T09:04:50.923Z,9.68
2022-09-10T09:07:22.589Z,10.93
2022-09-10T09:09:51.993Z,14.30
2022-09-10T09:12:46.084Z,14.63
2022-09-10T09:16:05.700Z,10.05
2022-09-10T09:18:56.815Z,10.25
2022-09-10T09:21:45.776Z,12.57
2022-09-10T09:24:24.151Z,12.02
2022-09-10T09:26:55.027Z,10.27
2022-09-10T09:29:27.967Z,10.32
2022-09-10T09:32:00.035Z,11.10
2022-09-10T09:34:44.558Z,12.60
2022-09-10T09:37:18.865Z,11.85
2022-09-10T09:39:54.406Z,17.63
2022-09-10T09:42:31.720Z,16.50
2022-09-10T09:45:25.976Z,14.13
2022-09-10T09:47:54.908Z,11.60
2022-09-10T09:50:22.115Z,10.48
2022-09-10T09:52:54.412Z,10.43
2022-09-10T09:55:43.872Z,13.50
2022-09-10T09:58:22.622Z,10.95
2022-09-10T10:00:54.809Z,11.95
2022-09-10T10:03:31.324Z,9.88
2022-09-10T10:06:06.610Z,11.60
2022-09-10T10:08:40.317Z,10.30
2022-09-10T10:11:08.646Z,12.30
2022-09-10T10:13:41.468Z,12.05
2022-09-10T10:16:21.010Z,10.68
2022-09-10T10:18:48.208Z,10.90
2022-09-10T10:21:30.565Z,11.45
2022-09-10T10:23:57.528Z,12.50
2022-09-10T10:26:32.828Z,12.82
2022-09-10T10:29:07.344Z,11.60
2022-09-10T10:31:43.910Z,12.32
2022-09-10T10:34:29.205Z,13.65
2022-09-10T10:37:02.273Z,13.13
2022-09-10T10:39:41.216Z,13.55
2022-09-10T10:42:21.557Z,13.98
2022-09-10T10:44:54.404Z,14.40
2022-09-10T10:47:24.434Z,13.82
2022-09-10T10:50:03.785Z,10.38
2022-09-10T10:53:13.905Z,13.23
2022-09-10T10:55:59.004Z,11.38
2022-09-10T10:58:54.521Z,12.30
2022-09-10T11:01:25.194Z,11.68
2022-09-10T11:04:08.375Z,11.90
2022-09-10T11:06:43.714Z,13.15
2022-09-10T11:09:39.349Z,12.70
2022-09-10T11:12:28.253Z,12.25
2022-09-10T11:15:18.961Z,14.45
2022-09-10T11:18:01.778Z,13.43
2022-09-10T11:21:05.005Z,16.20
2022-09-10T11:23:57.952Z,15.07
2022-09-10T11:26:46.119Z,17.02
2022-09-10T11:29:42.223Z,16.23
2022-09-10T11:32:27.400Z,14.13
2022-09-10T11:34:58.241Z,14.00
2022-09-10T11:40:02.800Z,15.10
2022-09-10T11:42:46.338Z,16.40
2022-09-10T11:45:48.098Z,16.08
2022-09-10T11:48:23.070Z,15.88
2022-09-10T11:50:53.444Z,15.23
2022-09-10T11:53:22.995Z,16.23
2022-09-10T11:56:05.352Z,16.52
2022-09-10T11:58:58.807Z,15.70
2022-09-10T12:01:37.912Z,15.07
2022-09-10T12:04:47.407Z,33.50
2022-09-10T12:07:42.684Z,92.88
2022-09-10T12:10:42.739Z,71.45
2022-09-10T12:13:12.972Z,24.23
2022-09-10T12:15:40.045Z,33.03
2022-09-10T12:18:19.132Z,14.35
2022-09-10T12:20:59.845Z,22.63
2022-09-10T12:23:33.957Z,12.48
2022-09-10T12:26:09.598Z,10.93
2022-09-10T12:28:42.747Z,11.57
2022-09-10T12:31:11.851Z,11.07
2022-09-10T12:33:44.601Z,11.23
2022-09-10T12:36:34.960Z,11.00
2022-09-10T12:39:22.130Z,10.95
2022-09-10T12:41:50.066Z,10.43
2022-09-10T12:44:35.367Z,11.18
2022-09-10T12:47:14.486Z,10.65
2022-09-10T12:49:57.647Z,12.13
2022-09-10T12:52:51.953Z,12.90
2022-09-10T12:55:37.484Z,13.52
2022-09-10T12:58:07.464Z,12.70
2022-09-10T13:00:56.323Z,12.80
2022-09-10T13:03:27.022Z,13.20
2022-09-10T13:08:44.841Z,11.10
2022-09-10T13:11:25.567Z,10.35
2022-09-10T13:14:07.701Z,10.38
2022-09-10T13:16:35.349Z,10.65
2022-09-10T13:19:14.301Z,11.38
2022-09-10T13:21:41.176Z,10.60
2022-09-10T13:24:32.949Z,10.95
2022-09-10T13:27:13.477Z,10.25
2022-09-10T13:29:43.913Z,10.98
2022-09-10T13:32:20.277Z,11.07
2022-09-10T13:35:22.418Z,11.43
2022-09-10T13:38:33.325Z,11.82
2022-09-10T13:41:28.435Z,10.20
2022-09-10T13:44:17.002Z,10.20
2022-09-10T13:46:48.740Z,11.95
2022-09-10T13:49:37.399Z,12.80
2022-09-10T13:52:11.237Z,12.38
2022-09-10T13:54:53.601Z,12.88
2022-09-10T13:57:41.187Z,13.40
2022-09-10T14:00:20.716Z,12.68
2022-09-10T14:02:53.771Z,13.20
2022-09-10T14:05:29.637Z,13.38
2022-09-10T14:08:00.378Z,15.48
2022-09-10T14:12:56.194Z,14.18
2022-09-10T14:15:29.530Z,12.30
2022-09-10T14:17:59.363Z,17.88
2022-09-10T14:20:29.293Z,14.82
2022-09-10T14:23:13.071Z,13.00
2022-09-10T14:25:42.906Z,12.32
2022-09-10T14:28:24.517Z,15.35
2022-09-10T14:30:53.136Z,16.60
2022-09-10T14:33:30.295Z,12.10
2022-09-10T14:36:01.030Z,10.63
2022-09-10T14:41:08.570Z,16.80
2022-09-10T14:46:10.566Z,11.93
2022-09-10T14:48:41.341Z,23.58
2022-09-10T14:53:40.795Z,10.73
2022-09-10T14:56:26.103Z,10.27
2022-09-10T14:58:58.749Z,16.88
2022-09-10T15:01:26.494Z,11.55
2022-09-10T15:03:53.926Z,10.57
2022-09-10T15:06:25.635Z,10.93
2022-09-10T15:08:56.568Z,11.15
2022-09-10T15:11:26.682Z,13.95
2022-09-10T15:13:56.191Z,11.30
2022-09-10T15:16:25.950Z,14.52
2022-09-10T15:18:52.902Z,11.73
2022-09-10T15:21:20.360Z,10.73
2022-09-10T15:23:48.502Z,12.35
2022-09-10T15:26:16.853Z,11.77
2022-09-10T15:28:43.819Z,11.57
2022-09-10T15:31:11.355Z,12.82
2022-09-10T15:33:38.557Z,12.75
2022-09-10T15:36:06.522Z,13.02
2022-09-10T15:38:34.318Z,13.25
2022-09-10T15:41:13.282Z,12.63
2022-09-10T15:43:43.239Z,13.68
2022-09-10T15:46:16.285Z,17.00
2022-09-10T15:48:43.804Z,15.77
2022-09-10T15:51:15.354Z,27.42
2022-09-10T15:53:44.017Z,32.40
2022-09-10T15:56:12.180Z,18.67
2022-09-10T15:58:39.913Z,15.70
2022-09-10T16:01:12.380Z,17.05
2022-09-10T16:03:46.625Z,18.77
2022-09-10T16:06:13.555Z,21.13
2022-09-10T16:08:40.584Z,18.98
2022-09-10T16:11:09.488Z,16.90
2022-09-10T16:13:39.338Z,18.73
2022-09-10T16:16:15.398Z,17.70
2022-09-10T16:18:42.349Z,19.17
2022-09-10T16:21:12.358Z,17.33
2022-09-10T16:23:40.885Z,18.67
2022-09-10T16:26:11.576Z,19.67
2022-09-10T16:31:16.821Z,19.95
2022-09-10T16:33:44.040Z,20.35
2022-09-10T16:36:11.265Z,17.77
2022-09-10T16:38:39.247Z,16.30
2022-09-10T16:41:07.084Z,18.45
2022-09-10T16:43:36.005Z,16.50
2022-09-10T16:46:05.024Z,17.15
2022-09-10T16:48:33.857Z,18.92
2022-09-10T16:51:08.411Z,16.63
2022-09-10T16:53:39.087Z,18.98
2022-09-10T16:56:12.376Z,19.33
2022-09-10T16:58:40.372Z,18.48
2022-09-10T17:01:09.732Z,18.58
2022-09-10T17:03:41.518Z,16.25
2022-09-10T17:06:15.534Z,19.23
2022-09-10T17:08:43.772Z,19.02
2022-09-10T17:11:10.836Z,19.10
2022-09-10T17:13:38.271Z,17.13
2022-09-10T17:16:17.540Z,19.98
2022-09-10T17:18:45.086Z,19.48
2022-09-10T17:21:12.119Z,19.15
2022-09-10T17:23:39.042Z,19.50
2022-09-10T17:26:09.973Z,16.52
2022-09-10T17:28:37.690Z,16.48
2022-09-10T17:31:05.377Z,17.73
2022-09-10T17:33:33.826Z,16.13
2022-09-10T17:36:03.614Z,16.55
2022-09-10T17:38:33.503Z,17.45
2022-09-10T17:41:04.276Z,15.52
2022-09-10T17:46:06.265Z,15.25
2022-09-10T17:48:35.988Z,15.43
2022-09-10T17:51:03.250Z,16.80
2022-09-10T17:53:31.110Z,16.30
2022-09-10T17:56:09.202Z,18.05
2022-09-10T17:58:37.190Z,17.00
2022-09-10T18:01:08.267Z,15.43
2022-09-10T18:03:36.210Z,18.90
2022-09-10T18:06:11.842Z,18.75
2022-09-10T18:08:39.909Z,18.25
2022-09-10T18:11:08.816Z,21.45
2022-09-10T18:13:37.114Z,19.60
2022-09-10T18:16:13.399Z,16.48
2022-09-10T18:18:40.577Z,16.88
2022-09-10T18:21:19.810Z,17.75
2022-09-10T18:23:55.117Z,18.58
2022-09-10T18:26:25.204Z,18.77
2022-09-10T18:29:04.777Z,17.65
2022-09-10T18:31:37.621Z,18.05
2022-09-10T18:34:09.301Z,15.50
2022-09-10T18:36:36.387Z,15.50
2022-09-10T18:39:06.077Z,14.88
2022-09-10T18:41:38.525Z,13.82
2022-09-10T18:44:08.386Z,12.30
2022-09-10T18:46:36.690Z,12.53
2022-09-10T18:49:05.470Z,10.93
2022-09-10T18:51:32.441Z,12.30
2022-09-10T18:54:01.729Z,12.95
2022-09-10T18:56:31.837Z,11.30
2022-09-10T18:59:09.278Z,11.02
2022-09-10T19:01:38.250Z,10.40
2022-09-10T19:04:07.371Z,9.43
2022-09-10T19:06:37.143Z,10.27
2022-09-10T19:09:07.833Z,10.50
2022-09-10T19:11:40.617Z,11.93
2022-09-10T19:14:32.504Z,12.80
2022-09-10T19:17:00.957Z,11.77
2022-09-10T19:19:30.669Z,12.07
2022-09-10T19:22:01.450Z,14.02
2022-09-10T19:27:15.848Z,14.45
2022-09-10T19:29:43.347Z,14.50
2022-09-10T19:32:11.623Z,16.25
2022-09-10T19:34:39.246Z,18.15
2022-09-10T19:37:07.402Z,17.17
2022-09-10T19:39:34.368Z,18.98
2022-09-10T19:42:01.320Z,18.17
2022-09-10T19:44:28.443Z,16.25
2022-09-10T19:46:55.631Z,18.60
2022-09-10T19:49:22.607Z,14.07
2022-09-10T19:51:49.684Z,16.75
2022-09-10T19:54:16.809Z,14.43
2022-09-10T19:56:44.124Z,16.65
2022-09-10T19:59:11.094Z,14.75
2022-09-10T20:01:41.588Z,16.98
2022-09-10T20:04:11.730Z,20.83
2022-09-10T20:06:39.284Z,20.80
2022-09-10T20:09:08.936Z,19.27
2022-09-10T20:11:36.141Z,21.40
2022-09-10T20:14:08.227Z,19.85
2022-09-10T20:16:40.286Z,21.45
2022-09-10T20:19:07.485Z,30.13
2022-09-10T20:21:35.644Z,40.67
2022-09-10T20:24:02.798Z,36.15
2022-09-10T20:26:35.007Z,33.83
2022-09-10T20:29:05.494Z,37.45
2022-09-10T20:31:35.903Z,18.75
2022-09-10T20:34:06.867Z,10.98
2022-09-10T20:36:35.747Z,10.20
2022-09-10T20:39:02.937Z,8.52
2022-09-10T20:41:32.863Z,9.55
2022-09-10T20:44:01.727Z,8.93
2022-09-10T20:46:31.028Z,9.48
2022-09-10T20:49:05.751Z,9.18
2022-09-10T20:51:35.906Z,9.13
2022-09-10T20:54:04.321Z,9.60
2022-09-10T20:56:31.432Z,7.75
2022-09-10T20:58:59.075Z,8.88
2022-09-10T21:01:28.272Z,9.27
2022-09-10T21:03:58.813Z,7.85
2022-09-10T21:06:31.589Z,8.98
2022-09-10T21:08:59.279Z,8.70
2022-09-10T21:11:29.559Z,8.02
2022-09-10T21:14:02.253Z,8.02
2022-09-10T21:16:37.025Z,10.30
2022-09-10T21:19:08.172Z,9.68
2022-09-10T21:21:36.682Z,10.00
2022-09-10T21:24:07.149Z,10.02
2022-09-10T21:26:36.371Z,12.35
2022-09-10T21:29:06.210Z,12.27
2022-09-10T21:31:33.807Z,12.23
2022-09-10T21:34:03.367Z,11.02
2022-09-10T21:36:32.063Z,11.57
2022-09-10T21:39:01.219Z,11.82
2022-09-10T21:41:32.155Z,12.63
2022-09-10T21:44:00.691Z,12.13
2022-09-10T21:46:28.383Z,10.38
2022-09-10T21:48:55.637Z,13.55
2022-09-10T21:51:23.297Z,14.50
2022-09-10T21:53:55.192Z,14.75
2022-09-10T21:56:23.656Z,15.63
2022-09-10T21:58:50.605Z,13.85
2022-09-10T22:01:20.684Z,13.93
2022-09-10T22:03:48.672Z,14.90
2022-09-10T22:06:24.367Z,14.85
2022-09-10T22:08:54.583Z,13.43
2022-09-10T22:11:30.479Z,14.73
2022-09-10T22:14:01.316Z,13.85
2022-09-10T22:18:57.378Z,10.38
2022-09-10T22:21:25.317Z,14.15
2022-09-10T22:23:52.570Z,13.88
2022-09-10T22:26:22.524Z,14.88
2022-09-10T22:28:56.000Z,13.50
2022-09-10T22:31:25.802Z,12.85
2022-09-10T22:34:03.470Z,12.23
2022-09-10T22:36:36.418Z,10.85
2022-09-10T22:39:10.389Z,11.85
2022-09-10T22:41:37.842Z,11.70
2022-09-10T22:44:06.145Z,13.73
2022-09-10T22:46:34.055Z,10.27
2022-09-10T22:49:01.799Z,9.95
2022-09-10T22:51:30.948Z,11.57
2022-09-10T22:53:58.612Z,11.13
2022-09-10T22:56:27.325Z,10.88
2022-09-10T22:58:56.070Z,9.90
2022-09-10T23:01:32.299Z,10.15
2022-09-10T23:04:00.987Z,10.95
2022-09-10T23:06:30.706Z,11.10
2022-09-10T23:09:03.604Z,11.45
2022-09-10T23:11:31.826Z,10.93
2022-09-10T23:14:01.808Z,11.20
2022-09-10T23:16:34.603Z,12.80
2022-09-10T23:19:04.386Z,11.80
2022-09-10T23:21:36.151Z,12.15
2022-09-10T23:24:07.059Z,9.93
2022-09-10T23:26:34.012Z,12.00
2022-09-10T23:29:04.786Z,11.63
2022-09-10T23:34:06.477Z,12.15
2022-09-10T23:36:38.710Z,10.63
2022-09-10T23:39:08.804Z,11.93
2022-09-10T23:41:36.445Z,11.68
2022-09-10T23:44:04.042Z,11.32
2022-09-10T23:46:31.436Z,12.60
2022-09-10T23:48:58.924Z,11.55
2022-09-10T23:51:26.189Z,12.15
2022-09-10T23:53:54.939Z,11.65
2022-09-10T23:56:23.655Z,10.20
2022-09-10T23:58:50.627Z,13.25
